Time;durP1;ratioP1;P1;durP2;ratioP2;P2;SDS_P1;SDS_P2;PMS_P1;PMS_P2;Temp;Humidity;BMP_temperature;BMP_pressure;BME280_temperature;BME280_humidity;BME280_pressure;Samples;Min_cycle;Max_cycle;Signal;HPM_P1;HPM_P2
2022/01/09 00:01:12;;;;;;;29.10;17.10;;;;;;;5.49;92.04;94068.31;5036569;28;20446;-93
2022/01/09 00:03:40;;;;;;;24.37;17.13;;;;;;;5.37;90.73;94071.03;5036399;28;20475;-93
2022/01/09 00:06:09;;;;;;;26.40;17.80;;;;;;;5.30;90.91;94075.88;5036170;28;20524;-94
2022/01/09 00:08:38;;;;;;;28.27;17.33;;;;;;;5.28;91.12;94070.78;5035700;28;20563;-94
2022/01/09 00:11:05;;;;;;;21.63;15.20;;;;;;;5.27;90.05;94068.31;5035833;28;20934;-95
2022/01/09 00:13:32;;;;;;;21.03;14.47;;;;;;;5.24;91.25;94073.75;5036518;28;20872;-93
2022/01/09 00:15:59;;;;;;;22.97;12.60;;;;;;;5.24;90.79;94073.75;5036397;28;21051;-94
2022/01/09 00:18:26;;;;;;;20.83;13.77;;;;;;;5.25;91.24;94072.81;5036329;28;20450;-95
2022/01/09 00:20:53;;;;;;;22.30;14.63;;;;;;;5.27;91.13;94068.31;5036208;28;20450;-94
2022/01/09 00:23:22;;;;;;;15.70;11.60;;;;;;;5.26;91.15;94066.66;5036065;28;20455;-94
2022/01/09 00:25:49;;;;;;;23.90;13.73;;;;;;;5.26;91.01;94070.09;5035724;28;20458;-94
2022/01/09 00:28:16;;;;;;;22.93;13.60;;;;;;;5.25;91.63;94072.81;5035441;28;20486;-96
2022/01/09 00:30:43;;;;;;;22.07;14.57;;;;;;;5.26;91.18;94064.06;5034950;28;20968;-93
2022/01/09 00:33:10;;;;;;;21.50;14.87;;;;;;;5.26;91.70;94057.09;5035328;28;20454;-93
2022/01/09 00:35:36;;;;;;;19.67;15.40;;;;;;;5.27;91.13;94057.91;5035199;28;20460;-95
2022/01/09 00:38:03;;;;;;;26.60;16.57;;;;;;;5.25;91.51;94059.81;5035584;28;20448;-92
2022/01/09 00:40:32;;;;;;;28.40;17.13;;;;;;;5.24;91.29;94058.16;5036413;28;20455;-95
2022/01/09 00:42:59;;;;;;;41.23;21.60;;;;;;;5.16;91.42;94058.72;5037167;28;20448;-93
2022/01/09 00:45:26;;;;;;;59.07;27.13;;;;;;;4.90;92.31;94054.69;5037151;28;20450;-94
2022/01/09 00:47:53;;;;;;;57.10;27.90;;;;;;;4.94;92.46;94046.56;5036633;28;20479;-95
2022/01/09 00:50:20;;;;;;;48.83;24.40;;;;;;;4.93;92.54;94042.31;5036233;28;20459;-94
2022/01/09 00:52:47;;;;;;;37.90;22.27;;;;;;;4.97;92.46;94046.31;5036880;28;20945;-95
2022/01/09 00:55:14;;;;;;;38.87;23.77;;;;;;;4.72;92.60;94056.94;5034933;28;20443;-94
2022/01/09 00:57:42;;;;;;;35.47;21.97;;;;;;;4.79;92.92;94049.47;5035119;28;20454;-94
2022/01/09 01:00:10;;;;;;;36.93;22.57;;;;;;;4.84;92.50;94053.38;5035264;28;20485;-93
2022/01/09 01:02:38;;;;;;;36.53;23.43;;;;;;;4.89;93.52;94056.47;5034974;28;20559;-95
2022/01/09 01:05:06;;;;;;;28.60;19.20;;;;;;;4.98;93.42;94068.78;5035166;28;20470;-95
2022/01/09 01:07:34;;;;;;;24.90;16.97;;;;;;;5.05;93.33;94063.94;5034408;28;21128;-95
2022/01/09 01:10:01;;;;;;;22.93;15.50;;;;;;;5.11;92.35;94065.22;5035030;28;20452;-96
2022/01/09 01:12:30;;;;;;;26.23;14.43;;;;;;;5.16;91.82;94050.09;5034621;28;20462;-95
2022/01/09 01:14:58;;;;;;;19.63;13.50;;;;;;;5.23;91.97;94046.09;5035623;28;20457;-95
2022/01/09 01:17:26;;;;;;;27.20;16.10;;;;;;;5.27;91.19;94034.50;5034704;28;20533;-94
2022/01/09 01:19:54;;;;;;;24.40;15.40;;;;;;;5.31;91.08;94032.50;5034206;28;20460;-95
2022/01/09 01:22:22;;;;;;;22.93;14.83;;;;;;;5.34;91.28;94033.06;5034646;28;20458;-96
2022/01/09 01:24:50;;;;;;;23.83;17.17;;;;;;;5.35;90.82;94037.31;5034556;28;20450;-95
2022/01/09 01:27:18;;;;;;;19.07;15.57;;;;;;;5.37;90.19;94027.63;5034369;28;20550;-94
2022/01/09 01:29:45;;;;;;;21.70;15.60;;;;;;;5.39;90.28;94035.31;5034299;28;20573;-94
2022/01/09 01:32:13;;;;;;;21.23;15.47;;;;;;;5.41;90.08;94038.63;5033807;28;20451;-93
2022/01/09 01:34:40;;;;;;;22.57;15.00;;;;;;;5.39;89.92;94027.50;5033961;28;20447;-95
2022/01/09 01:37:07;;;;;;;19.07;14.50;;;;;;;5.37;89.15;94021.59;5034257;28;20465;-95
2022/01/09 01:39:34;;;;;;;21.17;14.97;;;;;;;5.35;89.72;94026.91;5033686;28;20536;-95
2022/01/09 01:42:01;;;;;;;30.77;18.00;;;;;;;5.34;90.15;94025.28;5034233;28;20461;-95
2022/01/09 01:44:39;;;;;;;28.00;17.10;;;;;;;5.35;90.12;94021.72;5034426;28;20457;-95
2022/01/09 01:47:06;;;;;;;25.53;15.13;;;;;;;5.38;90.02;94018.88;5034272;28;20529;-94
2022/01/09 01:49:34;;;;;;;25.90;13.87;;;;;;;5.38;90.09;94011.06;5033900;28;20479;-95
2022/01/09 01:52:01;;;;;;;27.53;14.03;;;;;;;5.41;90.32;94000.41;5033939;28;20546;-95
2022/01/09 01:54:28;;;;;;;19.40;13.33;;;;;;;5.41;90.42;93995.22;5034321;28;20473;-94
2022/01/09 01:56:56;;;;;;;24.13;13.47;;;;;;;5.42;90.45;93989.06;5034020;28;20451;-94
2022/01/09 01:59:23;;;;;;;18.00;11.70;;;;;;;5.42;89.51;93993.44;5033869;28;20479;-96
2022/01/09 02:01:50;;;;;;;20.37;12.83;;;;;;;5.42;89.94;93989.06;5033975;28;20455;-93
2022/01/09 02:04:18;;;;;;;21.07;14.10;;;;;;;5.38;89.67;93982.47;5033595;28;20977;-96
2022/01/09 02:06:47;;;;;;;23.33;16.10;;;;;;;5.32;90.21;93982.94;5034502;28;20992;-95
2022/01/09 02:09:14;;;;;;;19.00;14.27;;;;;;;5.32;90.62;93985.53;5036708;28;20485;-95
2022/01/09 02:11:41;;;;;;;19.43;13.23;;;;;;;5.31;89.98;93983.06;5037659;28;20447;-95
2022/01/09 02:14:08;;;;;;;19.30;13.03;;;;;;;5.28;89.89;93977.16;5037704;28;20461;-95
2022/01/09 02:16:41;;;;;;;17.67;11.17;;;;;;;5.24;90.33;93972.31;5037882;28;20459;-96
2022/01/09 02:19:13;;;;;;;17.63;10.80;;;;;;;5.23;90.80;93965.47;5037745;28;20538;-94
2022/01/09 02:21:42;;;;;;;18.60;10.80;;;;;;;5.22;90.67;93971.63;5037666;28;20458;-95
2022/01/09 02:24:09;;;;;;;14.30;9.13;;;;;;;5.21;90.25;93967.38;5037704;28;20462;-94
2022/01/09 02:26:36;;;;;;;14.47;9.70;;;;;;;5.15;90.14;93954.81;5037703;28;20451;-94
2022/01/09 02:29:04;;;;;;;13.73;8.17;;;;;;;5.15;90.07;93945.25;5037795;28;20484;-95
2022/01/09 02:31:31;;;;;;;11.00;8.00;;;;;;;5.13;89.49;93941.94;5037696;28;20883;-96
2022/01/09 02:33:58;;;;;;;14.10;9.03;;;;;;;5.16;90.37;93944.31;5037741;28;20460;-95
2022/01/09 02:36:26;;;;;;;10.37;8.93;;;;;;;5.17;90.21;93932.13;5038080;28;20455;-94
2022/01/09 02:38:54;;;;;;;12.00;8.77;;;;;;;5.17;90.15;93940.75;5037256;28;20454;-94
2022/01/09 02:41:21;;;;;;;13.67;8.73;;;;;;;5.18;90.80;93933.78;5037177;28;20447;-94
2022/01/09 02:43:48;;;;;;;12.83;9.30;;;;;;;5.16;89.93;93931.31;5037555;28;20456;-95
2022/01/09 02:46:27;;;;;;;13.93;9.97;;;;;;;5.16;90.17;93925.28;5037770;28;20450;-96
2022/01/09 02:48:54;;;;;;;18.10;11.47;;;;;;;5.15;89.69;93923.63;5037114;28;20474;-95
2022/01/09 02:51:21;;;;;;;16.67;11.80;;;;;;;5.15;89.16;93927.03;5037558;28;20860;-94
2022/01/09 02:53:50;;;;;;;24.23;13.93;;;;;;;5.14;89.15;93927.16;5036926;28;20461;-95
2022/01/09 02:56:18;;;;;;;25.00;14.10;;;;;;;5.10;89.78;93923.16;5037337;28;20454;-95
2022/01/09 02:58:45;;;;;;;23.07;13.00;;;;;;;5.06;89.09;93911.34;5037174;28;20462;-94
2022/01/09 03:01:13;;;;;;;16.07;11.07;;;;;;;5.04;89.18;93921.06;5037427;28;20457;-95
2022/01/09 03:03:40;;;;;;;15.40;10.23;;;;;;;5.03;89.50;93924.59;5037477;28;20493;-93
2022/01/09 03:06:08;;;;;;;13.97;9.10;;;;;;;5.02;89.32;93923.78;5036904;28;20456;-94
2022/01/09 03:08:35;;;;;;;13.80;10.07;;;;;;;5.01;88.94;93916.94;5036243;28;20514;-94
2022/01/09 03:11:02;;;;;;;16.97;9.60;;;;;;;4.97;88.34;93916.34;5036793;28;20455;-94
2022/01/09 03:13:32;;;;;;;12.37;9.30;;;;;;;4.92;87.85;93908.09;5037167;28;20461;-95
2022/01/09 03:15:59;;;;;;;13.60;9.30;;;;;;;4.90;88.63;93914.31;5036944;28;20826;-94
2022/01/09 03:18:26;;;;;;;13.20;8.27;;;;;;;4.89;88.39;93918.69;5044592;28;21023;-89
2022/01/09 03:20:53;;;;;;;18.53;9.80;;;;;;;4.88;88.16;93909.25;5059697;28;20557;-87
2022/01/09 03:23:20;;;;;;;19.10;12.90;;;;;;;4.83;87.88;93901.00;5057750;28;20541;-93
2022/01/09 03:25:47;;;;;;;18.40;11.93;;;;;;;4.77;88.51;93892.84;5044971;28;20452;-94
2022/01/09 03:28:14;;;;;;;21.00;12.07;;;;;;;4.73;88.74;93894.03;5046840;28;20448;-94
2022/01/09 03:30:42;;;;;;;25.20;11.50;;;;;;;4.73;88.61;93901.84;5044323;28;20460;-94
2022/01/09 03:33:09;;;;;;;20.40;13.50;;;;;;;4.69;89.53;93895.22;5040509;28;20451;-95
2022/01/09 03:35:37;;;;;;;27.10;15.77;;;;;;;4.70;89.14;93912.47;5036433;28;20956;-93
2022/01/09 03:38:05;;;;;;;24.60;15.27;;;;;;;4.67;88.64;93913.53;5036869;28;20454;-93
2022/01/09 03:40:32;;;;;;;22.60;13.87;;;;;;;4.62;89.06;93915.66;5036630;28;20818;-95
2022/01/09 03:42:59;;;;;;;22.77;13.33;;;;;;;4.61;88.96;93908.78;5036789;28;20455;-95
2022/01/09 03:45:27;;;;;;;23.20;12.77;;;;;;;4.60;89.76;93902.78;5036396;28;20465;-93
2022/01/09 03:47:56;;;;;;;18.80;11.20;;;;;;;4.64;89.11;93893.00;5036458;28;20546;-94
2022/01/09 03:50:24;;;;;;;15.63;10.37;;;;;;;4.64;89.03;93896.41;5035990;28;20486;-95
2022/01/09 03:52:52;;;;;;;20.83;13.90;;;;;;;4.65;88.48;93889.44;5036096;28;20454;-94
2022/01/09 03:55:20;;;;;;;13.60;9.93;;;;;;;4.61;88.75;93888.00;5036413;28;20542;-95
2022/01/09 03:57:48;;;;;;;12.17;9.77;;;;;;;4.60;89.25;93888.97;5036495;28;20553;-94
2022/01/09 04:00:17;;;;;;;13.93;10.80;;;;;;;4.60;88.81;93892.38;5036028;28;20529;-94
2022/01/09 04:02:45;;;;;;;14.83;9.90;;;;;;;4.61;90.20;93888.84;5035952;28;20922;-95
2022/01/09 04:05:13;;;;;;;18.93;11.63;;;;;;;4.61;90.23;93880.22;5036110;28;20446;-95
2022/01/09 04:07:40;;;;;;;18.80;13.27;;;;;;;4.60;89.90;93894.97;5036093;28;20461;-93
2022/01/09 04:10:08;;;;;;;16.33;10.73;;;;;;;4.59;90.92;93889.91;5039882;28;20482;-94
2022/01/09 04:12:47;;;;;;;13.00;9.67;;;;;;;4.61;90.65;93888.84;5036080;28;20457;-94
2022/01/09 04:15:15;;;;;;;10.63;8.20;;;;;;;4.69;91.29;93885.66;5035930;28;20438;-93
2022/01/09 04:17:51;;;;;;;10.87;7.80;;;;;;;4.76;91.42;93881.63;5038552;28;20457;-92
2022/01/09 04:20:20;;;;;;;11.43;7.10;;;;;;;4.82;91.94;93888.94;5036213;28;20463;-94
2022/01/09 04:22:48;;;;;;;11.40;7.87;;;;;;;4.91;92.83;93885.59;5035721;28;20462;-93
2022/01/09 04:25:16;;;;;;;12.73;7.97;;;;;;;4.98;92.43;93884.19;5035491;28;20454;-92
2022/01/09 04:27:43;;;;;;;9.27;7.13;;;;;;;5.04;92.23;93879.47;5035747;28;20447;-93
2022/01/09 04:30:11;;;;;;;7.80;6.27;;;;;;;5.08;92.96;93879.09;5035373;28;20574;-92
2022/01/09 04:32:39;;;;;;;7.00;6.13;;;;;;;5.13;92.33;93878.72;5035834;28;20941;-92
2022/01/09 04:35:07;;;;;;;8.07;5.70;;;;;;;5.10;92.44;93863.38;5036322;28;20454;-93
2022/01/09 04:37:37;;;;;;;8.50;6.90;;;;;;;5.14;92.54;93869.97;5035025;28;20460;-94
2022/01/09 04:40:06;;;;;;;9.87;7.07;;;;;;;5.10;92.71;93877.19;5035288;28;20457;-95
2022/01/09 04:42:39;;;;;;;8.77;6.33;;;;;;;5.11;92.14;93867.63;5035208;28;20456;-92
2022/01/09 04:45:08;;;;;;;9.20;6.50;;;;;;;5.14;91.75;93865.59;5035255;28;20489;-93
2022/01/09 04:47:35;;;;;;;10.17;6.20;;;;;;;5.13;92.34;93868.31;5034956;28;20486;-94
2022/01/09 04:50:02;;;;;;;10.73;7.67;;;;;;;5.10;92.01;93868.56;5034812;28;20482;-94
2022/01/09 04:52:33;;;;;;;8.87;7.70;;;;;;;5.07;92.51;93868.81;5034581;28;20459;-93
2022/01/09 04:55:02;;;;;;;25.43;12.60;;;;;;;5.07;91.44;93863.63;5035512;28;20485;-94
2022/01/09 04:57:29;;;;;;;22.53;12.27;;;;;;;5.07;91.81;93866.22;5034978;28;20445;-95
2022/01/09 04:59:56;;;;;;;18.40;11.37;;;;;;;5.08;91.91;93875.66;5034629;28;20486;-93
2022/01/09 05:02:23;;;;;;;15.50;10.43;;;;;;;5.08;91.51;93875.66;5034975;28;21011;-95
2022/01/09 05:04:50;;;;;;;20.23;9.30;;;;;;;5.09;91.69;93874.72;5034642;28;20458;-92
2022/01/09 05:07:17;;;;;;;15.40;10.77;;;;;;;5.09;92.54;93872.94;5034997;28;20530;-92
2022/01/09 05:09:44;;;;;;;24.20;14.83;;;;;;;5.12;92.33;93857.09;5034842;28;20489;-93
2022/01/09 05:12:12;;;;;;;25.50;18.40;;;;;;;5.15;92.32;93858.63;5034988;28;20460;-93
2022/01/09 05:14:39;;;;;;;29.97;21.43;;;;;;;5.14;92.53;93857.78;5034940;28;20452;-94
2022/01/09 05:17:07;;;;;;;21.73;18.67;;;;;;;5.14;92.55;93862.16;5034842;28;20460;-92
2022/01/09 05:19:35;;;;;;;22.33;15.83;;;;;;;5.17;93.19;93872.31;5034616;28;20454;-93
2022/01/09 05:22:02;;;;;;;19.50;15.40;;;;;;;5.21;92.77;93876.34;5034470;28;20462;-92
2022/01/09 05:24:29;;;;;;;15.97;13.20;;;;;;;5.20;92.01;93878.13;5035016;28;20448;-94
2022/01/09 05:26:56;;;;;;;16.30;12.27;;;;;;;5.21;91.63;93866.78;5034500;28;21005;-92
2022/01/09 05:29:25;;;;;;;21.40;14.10;;;;;;;5.22;92.42;93865.00;5034370;28;20490;-91
2022/01/09 05:31:52;;;;;;;18.40;13.00;;;;;;;5.25;91.56;93849.16;5034284;28;20542;-92
2022/01/09 05:34:19;;;;;;;20.53;12.50;;;;;;;5.28;91.58;93848.91;5033947;28;20461;-92
2022/01/09 05:36:46;;;;;;;16.00;13.20;;;;;;;5.26;91.57;93853.41;5034318;28;20455;-91
2022/01/09 05:39:13;;;;;;;18.43;14.97;;;;;;;5.18;90.74;93853.16;5034276;28;20458;-93
2022/01/09 05:41:42;;;;;;;13.70;11.10;;;;;;;5.06;90.40;93855.00;5034716;28;20460;-92
2022/01/09 05:44:09;;;;;;;15.00;10.63;;;;;;;5.06;91.00;93856.75;5033681;28;20447;-91
2022/01/09 05:46:37;;;;;;;16.17;11.40;;;;;;;5.07;90.73;93863.63;5034484;28;20455;-91
2022/01/09 05:49:04;;;;;;;14.90;11.00;;;;;;;5.05;90.68;93868.13;5034160;28;20454;-93
2022/01/09 05:51:31;;;;;;;13.77;9.83;;;;;;;5.03;90.17;93873.44;5034665;28;20477;-92
2022/01/09 05:53:58;;;;;;;18.77;10.00;;;;;;;5.02;91.18;93869.19;5034354;28;20466;-92
2022/01/09 05:56:25;;;;;;;12.80;10.03;;;;;;;5.02;91.02;93863.16;5034669;28;20452;-92
2022/01/09 05:58:52;;;;;;;14.30;10.20;;;;;;;5.04;91.60;93863.84;5033615;28;20454;-93
2022/01/09 06:01:19;;;;;;;13.13;9.43;;;;;;;5.04;91.31;93864.69;5033576;28;20973;-93
2022/01/09 06:03:48;;;;;;;15.93;10.37;;;;;;;5.07;91.95;93858.41;5034136;28;20453;-93
2022/01/09 06:06:15;;;;;;;12.87;10.00;;;;;;;5.13;92.30;93858.75;5034312;28;20455;-93
2022/01/09 06:08:42;;;;;;;14.03;11.53;;;;;;;5.19;92.46;93853.03;5034030;28;20830;-93
2022/01/09 06:11:09;;;;;;;19.87;13.37;;;;;;;5.23;91.51;93858.84;5033594;28;20484;-93
2022/01/09 06:13:36;;;;;;;20.80;14.10;;;;;;;5.25;92.08;93849.97;5034076;28;20555;-91
2022/01/09 06:16:03;;;;;;;17.83;12.33;;;;;;;5.28;91.78;93847.13;5034209;28;20460;-92
2022/01/09 06:18:30;;;;;;;21.03;14.87;;;;;;;5.31;92.22;93856.44;5034199;28;20451;-91
2022/01/09 06:20:59;;;;;;;20.10;12.87;;;;;;;5.27;91.57;93853.28;5034663;28;20443;-92
2022/01/09 06:23:26;;;;;;;40.97;26.17;;;;;;;4.92;93.57;93845.69;5034106;28;20967;-92
2022/01/09 06:25:54;;;;;;;61.10;31.43;;;;;;;5.02;93.04;93850.97;5033714;28;20450;-92
2022/01/09 06:28:21;;;;;;;73.47;36.60;;;;;;;5.04;93.33;93843.06;5034454;28;20455;-90
2022/01/09 06:30:48;;;;;;;86.47;39.60;;;;;;;5.07;93.76;93848.00;5033644;28;20513;-92
2022/01/09 06:33:15;;;;;;;72.40;38.97;;;;;;;5.09;94.50;93846.94;5034244;28;20450;-90
2022/01/09 06:35:44;;;;;;;74.07;36.60;;;;;;;5.15;95.02;93846.44;5033740;28;20467;-92
2022/01/09 06:38:12;;;;;;;63.50;31.97;;;;;;;5.22;94.98;93844.19;5034120;28;20820;-91
2022/01/09 06:40:39;;;;;;;37.90;22.23;;;;;;;5.27;93.51;93850.66;5033396;28;20630;-90
2022/01/09 06:43:07;;;;;;;42.70;21.00;;;;;;;5.32;93.98;93852.91;5033387;28;20450;-92
2022/01/09 06:45:34;;;;;;;32.93;18.10;;;;;;;5.38;94.37;93841.16;5033337;28;20450;-90
2022/01/09 06:48:02;;;;;;;27.73;14.80;;;;;;;5.45;94.15;93837.09;5033568;28;20464;-92
2022/01/09 06:50:29;;;;;;;18.33;12.20;;;;;;;5.52;94.70;93833.06;5033765;28;20483;-90
2022/01/09 06:52:57;;;;;;;22.60;14.30;;;;;;;5.57;94.18;93841.31;5033923;28;20469;-89
2022/01/09 06:55:25;;;;;;;23.03;14.97;;;;;;;5.67;94.31;93842.19;5036974;28;20457;-90
2022/01/09 06:57:53;;;;;;;40.80;24.27;;;;;;;5.77;94.09;93842.25;5037034;28;20455;-92
2022/01/09 07:00:21;;;;;;;41.17;30.07;;;;;;;5.86;94.22;93841.50;5037111;28;20482;-93
2022/01/09 07:02:48;;;;;;;43.23;30.47;;;;;;;5.94;93.90;93841.72;5037954;28;20448;-94
2022/01/09 07:05:16;;;;;;;42.10;27.20;;;;;;;6.06;93.02;93842.47;5037320;28;20449;-92
2022/01/09 07:07:43;;;;;;;39.60;27.73;;;;;;;6.11;92.96;93833.34;5037032;28;20460;-92
2022/01/09 07:10:11;;;;;;;96.23;55.20;;;;;;;6.04;92.33;93834.78;5036866;28;20566;-93
2022/01/09 07:12:40;;;;;;;55.07;33.13;;;;;;;6.02;93.18;93839.28;5037078;28;20455;-92
2022/01/09 07:15:08;;;;;;;33.13;20.70;;;;;;;6.05;92.49;93833.00;5036927;28;20465;-92
2022/01/09 07:17:35;;;;;;;31.57;20.90;;;;;;;6.17;91.94;93834.59;5038068;28;20453;-93
2022/01/09 07:20:03;;;;;;;31.30;20.17;;;;;;;6.20;93.15;93834.34;5036282;28;20540;-93
2022/01/09 07:22:30;;;;;;;43.40;26.67;;;;;;;6.22;92.16;93841.06;5036565;28;20448;-93
2022/01/09 07:24:57;;;;;;;47.87;30.77;;;;;;;6.34;92.31;93843.56;5037213;28;20446;-93
2022/01/09 07:27:24;;;;;;;44.87;30.30;;;;;;;6.40;92.63;93843.88;5036587;28;20458;-92
2022/01/09 07:29:53;;;;;;;46.70;31.20;;;;;;;6.52;91.66;93855.84;5036675;28;20479;-94
2022/01/09 07:32:20;;;;;;;39.30;26.23;;;;;;;6.51;91.41;93854.22;5036823;28;20456;-94
2022/01/09 07:34:47;;;;;;;41.77;25.67;;;;;;;6.42;91.38;93852.41;5036662;28;20456;-93
2022/01/09 07:37:14;;;;;;;46.03;30.27;;;;;;;6.40;91.80;93856.09;5036634;28;20938;-93
2022/01/09 07:39:41;;;;;;;64.37;39.80;;;;;;;6.44;92.23;93860.91;5036583;28;20495;-91
2022/01/09 07:42:08;;;;;;;59.73;42.70;;;;;;;6.44;91.92;93857.47;5036333;28;20452;-91
2022/01/09 07:44:35;;;;;;;64.17;43.67;;;;;;;6.46;91.65;93852.97;5036152;28;20452;-92
2022/01/09 07:47:04;;;;;;;72.47;40.93;;;;;;;6.44;92.70;93854.88;5037193;28;20463;-92
2022/01/09 07:49:31;;;;;;;58.30;37.67;;;;;;;6.39;92.15;93854.44;5036338;28;20475;-93
2022/01/09 07:51:58;;;;;;;65.33;40.10;;;;;;;6.46;93.43;93855.56;5036158;28;20455;-93
2022/01/09 07:54:25;;;;;;;53.97;33.03;;;;;;;6.52;92.78;93855.03;5036148;28;20470;-92
2022/01/09 07:56:52;;;;;;;50.27;31.47;;;;;;;6.59;93.22;93845.72;5035982;28;20464;-93
2022/01/09 07:59:19;;;;;;;50.67;31.40;;;;;;;6.70;93.22;93842.22;5035732;28;20488;-92
2022/01/09 08:01:46;;;;;;;46.47;27.77;;;;;;;6.77;92.49;93838.94;5036317;28;20447;-92
2022/01/09 08:04:14;;;;;;;45.77;27.10;;;;;;;6.87;92.71;93835.53;5036571;28;20449;-92
2022/01/09 08:06:41;;;;;;;43.90;27.80;;;;;;;7.00;92.64;93836.13;5034794;28;20457;-93
2022/01/09 08:09:08;;;;;;;46.20;27.13;;;;;;;7.17;92.84;93839.81;5035764;28;20452;-93
2022/01/09 08:11:35;;;;;;;43.60;25.47;;;;;;;7.34;91.66;93842.59;5035384;28;20481;-92
2022/01/09 08:14:02;;;;;;;38.73;23.50;;;;;;;7.50;90.52;93841.22;5035703;28;20459;-93
2022/01/09 08:16:29;;;;;;;31.97;24.40;;;;;;;7.58;89.93;93834.38;5035432;28;20463;-92
2022/01/09 08:18:56;;;;;;;31.17;19.07;;;;;;;7.62;89.14;93824.47;5035292;28;20463;-92
2022/01/09 08:21:25;;;;;;;19.50;13.50;;;;;;;7.72;88.89;93830.50;5035620;28;21020;-93
2022/01/09 08:23:52;;;;;;;16.10;12.20;;;;;;;7.78;88.16;93815.09;5035918;28;20542;-92
2022/01/09 08:26:19;;;;;;;14.60;12.20;;;;;;;7.78;86.79;93814.28;5035441;28;20465;-92
2022/01/09 08:28:48;;;;;;;27.50;20.33;;;;;;;7.81;86.92;93813.19;5035452;28;20488;-92
2022/01/09 08:31:15;;;;;;;34.20;23.90;;;;;;;7.89;87.51;93811.53;5035491;28;20478;-91
2022/01/09 08:33:43;;;;;;;38.10;25.30;;;;;;;8.01;87.48;93810.38;5035813;28;20518;-92
2022/01/09 08:36:10;;;;;;;29.57;21.90;;;;;;;8.03;87.25;93815.47;5035356;28;20457;-92
2022/01/09 08:38:38;;;;;;;28.90;20.20;;;;;;;8.10;87.61;93807.91;5035509;28;20575;-91
2022/01/09 08:41:05;;;;;;;24.30;17.10;;;;;;;8.12;86.87;93812.03;5035290;28;20478;-92
2022/01/09 08:43:32;;;;;;;26.77;18.83;;;;;;;8.18;86.26;93800.19;5035579;28;20445;-91
2022/01/09 08:46:00;;;;;;;26.53;19.53;;;;;;;8.24;85.62;93789.16;5035203;28;20454;-91
2022/01/09 08:48:27;;;;;;;20.60;15.90;;;;;;;8.23;85.75;93793.56;5035652;28;20458;-91
2022/01/09 08:50:54;;;;;;;24.57;15.10;;;;;;;8.28;85.56;93800.97;5051366;28;20556;-89
2022/01/09 08:53:21;;;;;;;22.00;15.07;;;;;;;8.42;85.32;93803.16;5058156;28;20517;-86
2022/01/09 08:55:49;;;;;;;21.80;14.27;;;;;;;8.47;85.09;93806.16;5050628;28;20546;-90
2022/01/09 08:58:16;;;;;;;23.70;13.67;;;;;;;8.57;83.89;93816.56;5042949;28;20572;-91
2022/01/09 09:00:43;;;;;;;24.00;15.00;;;;;;;8.75;84.89;93806.16;5044995;28;20490;-90
2022/01/09 09:03:10;;;;;;;18.50;11.53;;;;;;;8.88;84.08;93797.00;5046758;28;20472;-92
2022/01/09 09:05:37;;;;;;;19.53;12.10;;;;;;;9.02;83.06;93790.44;5042801;28;20462;-93
2022/01/09 09:08:05;;;;;;;16.70;11.57;;;;;;;9.24;83.05;93781.31;5037744;28;20465;-93
2022/01/09 09:10:32;;;;;;;20.13;12.17;;;;;;;9.40;81.63;93778.03;5035444;28;20485;-94
2022/01/09 09:13:01;;;;;;;19.00;11.20;;;;;;;9.49;80.45;93775.34;5035906;28;20550;-93
2022/01/09 09:15:28;;;;;;;12.37;8.67;;;;;;;9.58;80.21;93777.06;5037260;28;20454;-94
2022/01/09 09:17:55;;;;;;;12.23;7.83;;;;;;;9.70;79.33;93774.19;5036188;28;20449;-95
2022/01/09 09:20:22;;;;;;;12.73;8.73;;;;;;;9.55;78.33;93768.69;5035779;28;20442;-92
2022/01/09 09:22:50;;;;;;;15.73;12.23;;;;;;;9.45;79.13;93758.28;5035573;28;20457;-92
2022/01/09 09:25:17;;;;;;;10.97;7.83;;;;;;;9.34;78.62;93752.47;5037307;28;20458;-95
2022/01/09 09:27:45;;;;;;;11.60;8.67;;;;;;;9.34;79.06;93747.22;5036197;28;20464;-93
2022/01/09 09:30:15;;;;;;;14.50;10.13;;;;;;;9.37;79.61;93741.69;5038408;28;21020;-94
2022/01/09 09:32:44;;;;;;;15.63;11.33;;;;;;;9.43;79.73;93741.06;5035744;28;20452;-91
2022/01/09 09:35:12;;;;;;;10.47;6.83;;;;;;;9.03;80.77;93724.06;5035569;28;20454;-93
2022/01/09 09:37:39;;;;;;;13.50;8.20;;;;;;;9.16;80.00;93718.44;5035710;28;20527;-93
2022/01/09 09:40:07;;;;;;;32.00;12.43;;;;;;;8.92;81.40;93714.63;5034315;28;20446;-94
2022/01/09 09:42:34;;;;;;;13.57;9.70;;;;;;;9.06;82.09;93702.81;5035680;28;20823;-90
2022/01/09 09:45:04;;;;;;;9.90;6.57;;;;;;;8.89;82.55;93704.47;5037014;28;20454;-93
2022/01/09 09:47:34;;;;;;;6.23;4.73;;;;;;;8.74;82.47;93705.97;5036871;28;20457;-92
2022/01/09 09:50:02;;;;;;;8.07;5.40;;;;;;;8.86;82.30;93699.53;5036080;28;20450;-91
2022/01/09 09:52:29;;;;;;;7.97;6.00;;;;;;;9.03;82.28;93699.69;5035532;28;20457;-92
2022/01/09 09:54:56;;;;;;;9.53;6.67;;;;;;;9.26;81.67;93691.22;5034472;28;20451;-94
2022/01/09 09:57:23;;;;;;;6.53;5.20;;;;;;;9.30;80.29;93692.56;5035086;28;20447;-91
2022/01/09 09:59:50;;;;;;;6.40;5.00;;;;;;;9.22;80.05;93681.19;5035260;28;20478;-94
2022/01/09 10:02:18;;;;;;;6.80;5.30;;;;;;;9.39;79.60;93688.19;5034474;28;20611;-93
2022/01/09 10:05:02;;;;;;;9.90;6.17;;;;;;;8.98;80.50;93684.44;5036036;28;20453;-93
2022/01/09 10:07:29;;;;;;;4.63;4.13;;;;;;;9.19;80.24;93678.88;5035798;28;20537;-92
2022/01/09 10:09:59;;;;;;;8.10;4.73;;;;;;;9.30;80.11;93679.47;5034415;28;20928;-92
2022/01/09 10:12:28;;;;;;;7.60;5.30;;;;;;;9.36;78.61;93672.81;5035344;28;20530;-92
2022/01/09 10:14:57;;;;;;;6.03;5.10;;;;;;;9.21;79.20;93679.53;5035540;28;20459;-92
2022/01/09 10:17:24;;;;;;;4.93;4.43;;;;;;;9.14;79.90;93678.50;5035929;28;20454;-90
2022/01/09 10:19:55;;;;;;;7.50;5.37;;;;;;;9.17;79.75;93673.78;5034790;28;20537;-91
2022/01/09 10:22:32;;;;;;;5.83;4.37;;;;;;;9.21;79.95;93669.91;5037374;28;20446;-93
2022/01/09 10:25:16;;;;;;;7.50;4.77;;;;;;;9.05;79.43;93659.31;5036493;28;20465;-93
2022/01/09 10:27:43;;;;;;;6.57;4.33;;;;;;;9.06;79.80;93666.19;5035885;28;20922;-89
2022/01/09 10:30:11;;;;;;;5.63;4.97;;;;;;;9.12;80.68;93660.34;5038687;28;20541;-92
2022/01/09 10:32:38;;;;;;;8.13;5.20;;;;;;;9.16;79.85;93651.22;5039538;28;21071;-92
2022/01/09 10:35:10;;;;;;;9.77;6.70;;;;;;;9.15;79.55;93649.56;5039348;28;20462;-93
2022/01/09 10:37:40;;;;;;;7.57;5.80;;;;;;;9.31;80.36;93641.84;5037578;28;20456;-94
2022/01/09 10:40:10;;;;;;;7.00;5.47;;;;;;;9.35;79.83;93642.38;5037556;28;20458;-92
2022/01/09 10:42:40;;;;;;;9.10;6.20;;;;;;;9.45;79.32;93637.84;5037848;28;20452;-94
2022/01/09 10:45:22;;;;;;;4.73;4.27;;;;;;;9.41;78.74;93638.31;5038567;28;20446;-92
2022/01/09 10:47:49;;;;;;;8.10;5.10;;;;;;;9.21;78.67;93628.03;5039977;28;20550;-92
2022/01/09 10:50:27;;;;;;;6.60;4.60;;;;;;;9.37;78.44;93632.56;5038877;28;20504;-94
2022/01/09 10:53:14;;;;;;;8.37;4.97;;;;;;;9.43;77.98;93631.94;5038656;28;20517;-94
2022/01/09 10:55:41;;;;;;;8.23;6.27;;;;;;;9.46;79.08;93630.81;5039224;28;20524;-92
2022/01/09 10:58:20;;;;;;;11.03;6.43;;;;;;;9.63;78.22;93625.53;5039173;28;20457;-95
2022/01/09 11:00:48;;;;;;;6.23;5.40;;;;;;;9.79;77.04;93629.19;5039264;28;20477;-93
2022/01/09 11:03:15;;;;;;;9.27;6.17;;;;;;;9.93;77.58;93621.56;5037467;28;20465;-91
2022/01/09 11:05:43;;;;;;;8.90;5.97;;;;;;;10.05;77.84;93616.03;5037431;28;20533;-91
2022/01/09 11:08:14;;;;;;;14.20;6.33;;;;;;;10.16;76.82;93610.53;5036665;28;20477;-91
2022/01/09 11:10:41;;;;;;;7.60;5.50;;;;;;;10.29;75.88;93612.72;5037046;28;20458;-94
2022/01/09 11:13:14;;;;;;;9.10;6.93;;;;;;;10.48;75.99;93604.56;5037609;28;20454;-93
2022/01/09 11:16:32;;;;;;;7.43;5.73;;;;;;;10.65;74.83;93602.78;5039912;28;20453;-91
2022/01/09 11:18:31;;;;;;;11.00;8.70;;;;;;;10.78;74.13;93601.34;5036484;28;20440;-91
2022/01/09 11:20:58;;;;;;;9.53;6.73;;;;;;;10.86;73.23;93605.75;5036909;28;20874;-92
2022/01/09 11:23:39;;;;;;;11.90;7.10;;;;;;;10.63;74.93;93591.63;5037427;28;20448;-89
2022/01/09 11:26:12;;;;;;;11.23;7.80;;;;;;;10.47;73.78;93595.06;5038930;28;20583;-92
2022/01/09 11:28:42;;;;;;;7.43;5.50;;;;;;;10.42;74.12;93602.59;5037373;28;20460;-92
2022/01/09 11:31:18;;;;;;;7.27;5.97;;;;;;;10.41;73.64;93600.97;5037892;28;20546;-92
2022/01/09 11:33:59;;;;;;;6.07;5.40;;;;;;;10.33;73.53;93591.25;5036964;28;20459;-94